createdAt,value
2023-03-06T00:00:59.599Z,-2.14
2023-03-06T00:04:23.032Z,-2.23
2023-03-06T00:08:00.626Z,-2.22
2023-03-06T00:11:38.359Z,-2.21
2023-03-06T00:15:36.211Z,-2.26
2023-03-06T00:19:00.609Z,-2.35
2023-03-06T00:22:39.223Z,-2.38
2023-03-06T00:26:16.008Z,-2.38
2023-03-06T00:29:58.235Z,-2.54
2023-03-06T00:33:31.472Z,-2.61
2023-03-06T00:37:27.813Z,-2.55
2023-03-06T00:40:51.438Z,-2.53
2023-03-06T00:44:29.029Z,-2.50
2023-03-06T00:48:27.370Z,-2.40
2023-03-06T00:52:13.979Z,-2.32
2023-03-06T00:55:37.723Z,-2.18
2023-03-06T00:59:13.735Z,-2.14
2023-03-06T01:02:53.678Z,-2.17
2023-03-06T01:06:29.067Z,-2.16
2023-03-06T01:10:10.009Z,-2.16
2023-03-06T01:14:05.814Z,-2.17
2023-03-06T01:17:28.092Z,-2.21
2023-03-06T01:21:08.077Z,-2.24
2023-03-06T01:24:44.696Z,-2.26
2023-03-06T01:28:20.975Z,-2.25
2023-03-06T01:31:58.811Z,-2.23
2023-03-06T01:35:40.960Z,-2.14
2023-03-06T01:39:14.303Z,-2.08
2023-03-06T01:42:51.620Z,-2.06
2023-03-06T01:46:30.275Z,-2.09
2023-03-06T01:50:11.957Z,-2.12
2023-03-06T01:53:47.968Z,-2.13
2023-03-06T01:57:44.740Z,-2.15
2023-03-06T02:01:26.659Z,-2.13
2023-03-06T02:04:51.207Z,-2.13
2023-03-06T02:08:29.824Z,-2.10
2023-03-06T02:12:26.788Z,-2.02
2023-03-06T02:15:50.857Z,-1.98
2023-03-06T02:20:09.954Z,-1.92
2023-03-06T02:23:39.536Z,-1.83
2023-03-06T02:27:14.332Z,-1.94
2023-03-06T02:31:07.411Z,-1.96
2023-03-06T02:34:55.837Z,-1.96
2023-03-06T02:38:21.629Z,-1.97
2023-03-06T02:41:56.206Z,-2.00
2023-03-06T02:45:53.133Z,-2.04
2023-03-06T02:49:15.636Z,-2.08
2023-03-06T02:52:54.964Z,-2.08
2023-03-06T02:56:30.931Z,-2.06
2023-03-06T03:00:10.041Z,-1.94
2023-03-06T03:03:46.072Z,-1.95
2023-03-06T03:07:23.927Z,-1.93
2023-03-06T03:11:02.340Z,-1.86
2023-03-06T03:14:39.317Z,-1.92
2023-03-06T03:18:36.012Z,-1.92
2023-03-06T03:21:59.281Z,-1.92
2023-03-06T03:25:55.473Z,-1.94
2023-03-06T03:29:19.337Z,-1.98
2023-03-06T03:33:14.952Z,-2.01
2023-03-06T03:36:58.368Z,-2.01
2023-03-06T03:40:28.705Z,-1.94
2023-03-06T03:44:18.643Z,-1.89
2023-03-06T03:47:41.559Z,-1.82
2023-03-06T03:51:38.317Z,-1.81
2023-03-06T03:55:00.726Z,-1.82
2023-03-06T03:58:57.406Z,-1.87
2023-03-06T04:02:42.086Z,-1.94
2023-03-06T04:06:33.376Z,-2.00
2023-03-06T04:10:18.184Z,-2.07
2023-03-06T04:13:42.423Z,-2.25
2023-03-06T04:17:18.478Z,-2.33
2023-03-06T04:20:56.476Z,-2.34
2023-03-06T04:24:35.064Z,-2.39
2023-03-06T04:28:30.544Z,-2.28
2023-03-06T04:32:14.448Z,-2.34
2023-03-06T04:35:56.152Z,-2.35
2023-03-06T04:39:41.026Z,-2.32
2023-03-06T04:43:24.678Z,-2.31
2023-03-06T04:46:51.299Z,-2.31
2023-03-06T04:50:28.406Z,-2.32
2023-03-06T04:54:07.920Z,-2.36
2023-03-06T04:57:44.207Z,-2.40
2023-03-06T05:01:38.894Z,-2.44
2023-03-06T05:05:20.486Z,-2.47
2023-03-06T05:08:42.817Z,-2.50
2023-03-06T05:12:20.659Z,-2.50
2023-03-06T05:16:20.255Z,-2.47
2023-03-06T05:19:43.535Z,-2.43
2023-03-06T05:23:20.287Z,-2.39
2023-03-06T05:26:58.535Z,-2.33
2023-03-06T05:30:54.830Z,-2.30
2023-03-06T05:34:17.443Z,-2.28
2023-03-06T05:37:55.118Z,-2.26
2023-03-06T05:41:51.641Z,-2.27
2023-03-06T05:45:34.667Z,-2.25
2023-03-06T05:48:57.954Z,-2.29
2023-03-06T05:52:35.003Z,-2.29
2023-03-06T05:56:13.837Z,-2.26
2023-03-06T06:00:11.988Z,-2.19
2023-03-06T06:03:56.467Z,-2.12
2023-03-06T06:07:38.145Z,-2.02
2023-03-06T06:11:00.623Z,-1.94
2023-03-06T06:14:38.221Z,-1.89
2023-03-06T06:18:18.723Z,-1.84
2023-03-06T06:21:54.199Z,-1.82
2023-03-06T06:25:33.215Z,-1.84
2023-03-06T06:29:29.842Z,-1.84
2023-03-06T06:33:11.114Z,-1.84
2023-03-06T06:36:53.896Z,-1.82
2023-03-06T06:40:35.056Z,-1.76
2023-03-06T06:43:59.012Z,-1.69
2023-03-06T06:47:34.861Z,-1.58
2023-03-06T06:51:12.584Z,-1.43
2023-03-06T06:55:13.132Z,-1.34
2023-03-06T06:59:01.319Z,-1.27
2023-03-06T07:02:33.184Z,-1.23
2023-03-06T07:06:31.195Z,-1.20
2023-03-06T07:09:55.722Z,-1.22
2023-03-06T07:13:30.863Z,-1.21
2023-03-06T07:17:09.792Z,-1.14
2023-03-06T07:20:46.121Z,-0.99
2023-03-06T07:24:24.005Z,-0.85
2023-03-06T07:28:01.859Z,-0.79
2023-03-06T07:31:42.090Z,-0.74
2023-03-06T07:35:37.622Z,-0.69
2023-03-06T07:39:00.808Z,-0.63
2023-03-06T07:42:38.571Z,-0.57
2023-03-06T07:46:16.265Z,-0.49
2023-03-06T07:49:57.185Z,-0.37
2023-03-06T07:53:32.603Z,-0.29
2023-03-06T07:57:30.609Z,-0.22
2023-03-06T08:01:19.646Z,-0.10
2023-03-06T08:05:03.576Z,-0.00
2023-03-06T08:08:29.424Z,0.03
2023-03-06T08:12:07.119Z,0.16
2023-03-06T08:15:49.580Z,0.28
2023-03-06T08:19:40.070Z,0.49
2023-03-06T08:23:04.389Z,0.61
2023-03-06T08:26:40.613Z,0.78
2023-03-06T08:30:19.658Z,0.92
2023-03-06T08:33:59.109Z,1.01
2023-03-06T08:37:33.973Z,1.04
2023-03-06T08:41:31.064Z,1.13
2023-03-06T08:44:54.196Z,1.21
2023-03-06T08:48:50.787Z,1.37
2023-03-06T08:52:32.032Z,1.53
2023-03-06T08:56:22.680Z,1.62
2023-03-06T08:59:44.777Z,1.70
2023-03-06T09:03:25.627Z,1.72
2023-03-06T09:07:00.504Z,1.74
2023-03-06T09:10:46.699Z,1.84
2023-03-06T09:14:15.755Z,1.92
2023-03-06T09:17:54.469Z,2.09
2023-03-06T09:21:49.816Z,2.18
2023-03-06T09:25:13.937Z,2.24
2023-03-06T09:28:52.094Z,2.32
2023-03-06T09:32:46.380Z,2.48
2023-03-06T09:36:14.290Z,2.65
2023-03-06T09:40:07.602Z,2.75
2023-03-06T09:44:04.285Z,2.82
2023-03-06T09:48:04.910Z,2.93
2023-03-06T09:51:36.966Z,3.04
2023-03-06T09:55:29.765Z,3.17
2023-03-06T09:59:16.733Z,3.23
2023-03-06T10:02:44.956Z,3.31
2023-03-06T10:06:49.559Z,3.46
2023-03-06T10:10:20.746Z,3.51
2023-03-06T10:14:12.659Z,3.51
2023-03-06T10:17:57.363Z,3.56
2023-03-06T10:21:40.683Z,3.53
2023-03-06T10:25:28.027Z,3.61
2023-03-06T10:29:00.988Z,3.71
2023-03-06T10:32:57.937Z,3.77
2023-03-06T10:36:41.724Z,3.85
2023-03-06T10:40:35.961Z,3.93
2023-03-06T10:44:04.898Z,4.00
2023-03-06T10:48:11.296Z,4.03
2023-03-06T10:51:35.633Z,4.03
2023-03-06T10:55:32.276Z,4.15
2023-03-06T10:59:18.076Z,4.26
2023-03-06T11:02:41.246Z,4.27
2023-03-06T11:06:39.824Z,4.27
2023-03-06T11:10:22.985Z,4.41
2023-03-06T11:14:13.909Z,4.44
2023-03-06T11:18:23.603Z,4.38
2023-03-06T11:22:18.437Z,4.43
2023-03-06T11:25:44.305Z,4.56
2023-03-06T11:29:38.598Z,4.69
2023-03-06T11:33:12.517Z,4.81
2023-03-06T11:37:01.520Z,4.94
2023-03-06T11:40:59.102Z,5.01
2023-03-06T11:44:50.394Z,5.04
2023-03-06T11:48:13.538Z,5.04
2023-03-06T11:52:18.994Z,5.04
2023-03-06T11:55:58.147Z,5.07
2023-03-06T11:59:37.338Z,5.05
2023-03-06T12:03:24.352Z,5.09
2023-03-06T12:07:23.473Z,5.08
2023-03-06T12:11:01.551Z,5.13
2023-03-06T12:14:38.115Z,5.05
2023-03-06T12:18:36.891Z,5.00
2023-03-06T12:22:26.032Z,4.90
2023-03-06T12:26:09.088Z,4.87
2023-03-06T12:29:50.837Z,4.94
2023-03-06T12:33:40.262Z,4.92
2023-03-06T12:37:09.712Z,4.99
2023-03-06T12:41:42.524Z,4.92
2023-03-06T12:45:29.436Z,4.88
2023-03-06T12:49:31.416Z,4.88
2023-03-06T12:52:59.075Z,4.90
2023-03-06T12:56:34.416Z,4.87
2023-03-06T13:00:37.600Z,4.79
2023-03-06T13:04:38.284Z,4.77
2023-03-06T13:08:19.076Z,4.71
2023-03-06T13:12:13.398Z,4.74
2023-03-06T13:16:15.024Z,4.69
2023-03-06T13:19:37.825Z,4.66
2023-03-06T13:23:30.819Z,4.74
2023-03-06T13:26:59.634Z,4.70
2023-03-06T13:30:47.239Z,4.64
2023-03-06T13:34:37.540Z,4.57
2023-03-06T13:38:32.813Z,4.59
2023-03-06T13:41:57.458Z,4.46
2023-03-06T13:45:44.696Z,4.29
2023-03-06T13:49:10.694Z,4.17
2023-03-06T13:53:48.890Z,4.12
2023-03-06T13:57:47.635Z,4.01
2023-03-06T14:01:53.934Z,3.85
2023-03-06T14:05:18.217Z,3.69
2023-03-06T14:08:54.529Z,3.48
2023-03-06T14:12:50.421Z,3.30
2023-03-06T14:16:32.663Z,3.16
2023-03-06T14:20:15.589Z,3.02
2023-03-06T14:23:48.336Z,2.98
2023-03-06T14:27:18.990Z,2.93
2023-03-06T14:30:57.455Z,2.89
2023-03-06T14:34:51.147Z,2.88
2023-03-06T14:38:14.823Z,2.91
2023-03-06T14:41:51.136Z,2.92
2023-03-06T14:45:50.429Z,2.95
2023-03-06T14:49:20.992Z,3.00
2023-03-06T14:53:24.678Z,3.02
2023-03-06T14:57:14.755Z,3.07
2023-03-06T15:01:00.683Z,3.10
2023-03-06T15:04:48.102Z,3.14
2023-03-06T15:08:19.025Z,3.11
2023-03-06T15:12:22.204Z,3.02
2023-03-06T15:15:57.828Z,2.63
2023-03-06T15:19:54.076Z,2.22
2023-03-06T15:23:17.997Z,1.87
2023-03-06T15:27:19.238Z,1.65
2023-03-06T15:30:41.421Z,1.47
2023-03-06T15:34:38.063Z,1.42
2023-03-06T15:38:44.715Z,1.46
2023-03-06T15:42:20.708Z,1.36
2023-03-06T15:46:05.698Z,1.34
2023-03-06T15:49:51.191Z,1.34
2023-03-06T15:53:13.852Z,1.34
2023-03-06T15:57:20.784Z,1.33
2023-03-06T16:00:45.896Z,1.37
2023-03-06T16:04:24.853Z,1.43
2023-03-06T16:08:19.629Z,1.49
2023-03-06T16:12:07.064Z,1.59
2023-03-06T16:15:40.773Z,1.62
2023-03-06T16:19:28.133Z,1.59
2023-03-06T16:22:53.215Z,1.56
2023-03-06T16:26:31.790Z,1.51
2023-03-06T16:30:07.067Z,1.47
2023-03-06T16:34:02.404Z,1.47
2023-03-06T16:37:26.217Z,1.44
2023-03-06T16:41:22.485Z,1.43
2023-03-06T16:45:03.877Z,1.44
2023-03-06T16:48:26.021Z,1.44
2023-03-06T16:52:04.745Z,1.42
2023-03-06T16:56:04.950Z,1.42
2023-03-06T16:59:29.388Z,1.42
2023-03-06T17:03:27.024Z,1.41
2023-03-06T17:06:54.385Z,1.35
2023-03-06T17:10:50.209Z,1.30
2023-03-06T17:14:15.039Z,1.23
2023-03-06T17:18:11.331Z,1.19
2023-03-06T17:21:57.449Z,1.18
2023-03-06T17:25:20.111Z,1.13
2023-03-06T17:28:57.899Z,1.08
2023-03-06T17:32:54.350Z,1.05
2023-03-06T17:36:35.546Z,1.02
2023-03-06T17:39:58.206Z,1.01
2023-03-06T17:43:37.461Z,0.99
2023-03-06T17:47:13.616Z,0.97
2023-03-06T17:51:00.611Z,0.95
2023-03-06T17:54:30.220Z,0.92
2023-03-06T17:58:27.128Z,0.85
2023-03-06T18:01:49.417Z,0.80
2023-03-06T18:05:46.010Z,0.75
2023-03-06T18:09:10.187Z,0.70
2023-03-06T18:12:46.192Z,0.65
2023-03-06T18:16:26.999Z,0.62
2023-03-06T18:20:01.409Z,0.59
2023-03-06T18:23:39.680Z,0.61
2023-03-06T18:27:16.792Z,0.61
2023-03-06T18:30:54.374Z,0.65
2023-03-06T18:34:32.503Z,0.70
2023-03-06T18:38:28.676Z,0.76
2023-03-06T18:41:54.098Z,0.81
2023-03-06T18:45:29.802Z,0.82
2023-03-06T18:49:29.501Z,0.78
2023-03-06T18:52:52.692Z,0.69
2023-03-06T18:56:30.682Z,0.58
2023-03-06T19:00:28.965Z,0.52
2023-03-06T19:03:51.432Z,0.47
2023-03-06T19:07:48.039Z,0.48
2023-03-06T19:11:15.131Z,0.53
2023-03-06T19:14:57.766Z,0.52
2023-03-06T19:18:47.100Z,0.56
2023-03-06T19:22:15.114Z,0.58
2023-03-06T19:26:12.470Z,0.53
2023-03-06T19:29:39.039Z,0.45
2023-03-06T19:33:15.551Z,0.36
2023-03-06T19:36:52.054Z,0.29
2023-03-06T19:40:29.294Z,0.21
2023-03-06T19:44:07.067Z,0.12
2023-03-06T19:47:44.684Z,0.04
2023-03-06T19:51:22.838Z,-0.06
2023-03-06T19:55:00.170Z,-0.12
2023-03-06T19:58:41.068Z,-0.15
2023-03-06T20:02:35.892Z,-0.08
2023-03-06T20:05:58.122Z,0.03
2023-03-06T20:09:35.899Z,0.17
2023-03-06T20:13:32.313Z,0.26
2023-03-06T20:16:54.676Z,0.28
2023-03-06T20:21:01.582Z,0.29
2023-03-06T20:24:25.950Z,0.24
2023-03-06T20:28:01.463Z,0.20
2023-03-06T20:31:42.283Z,0.15
2023-03-06T20:35:41.869Z,0.07
2023-03-06T20:39:11.246Z,-0.03
2023-03-06T20:42:44.777Z,-0.11
2023-03-06T20:46:23.028Z,-0.20
2023-03-06T20:50:18.852Z,-0.24
2023-03-06T20:54:01.525Z,-0.25
2023-03-06T20:57:43.098Z,-0.21
2023-03-06T21:01:05.566Z,-0.18
2023-03-06T21:04:43.244Z,-0.15
2023-03-06T21:08:21.034Z,-0.15
2023-03-06T21:12:18.143Z,-0.15
2023-03-06T21:15:42.351Z,-0.20
2023-03-06T21:19:37.100Z,-0.21
2023-03-06T21:23:18.444Z,-0.23
2023-03-06T21:26:40.793Z,-0.25
2023-03-06T21:30:37.371Z,-0.25
2023-03-06T21:34:00.703Z,-0.24
2023-03-06T21:37:37.681Z,-0.20
2023-03-06T21:41:34.160Z,-0.13
2023-03-06T21:44:56.922Z,-0.09
2023-03-06T21:48:54.488Z,-0.04
2023-03-06T21:52:17.180Z,-0.04
2023-03-06T21:56:16.595Z,-0.05
2023-03-06T21:59:39.023Z,-0.07
2023-03-06T22:03:35.423Z,-0.10
2023-03-06T22:06:58.083Z,-0.12
2023-03-06T22:10:38.901Z,-0.10
2023-03-06T22:14:14.925Z,-0.11
2023-03-06T22:17:50.873Z,-0.08
2023-03-06T22:21:47.949Z,-0.04
2023-03-06T22:25:33.723Z,0.02
2023-03-06T22:28:56.637Z,0.04
2023-03-06T22:32:52.954Z,-0.06
2023-03-06T22:36:34.137Z,-0.09
2023-03-06T22:39:56.218Z,-0.11
2023-03-06T22:43:35.019Z,-0.15
2023-03-06T22:47:11.624Z,-0.19
2023-03-06T22:50:49.509Z,-0.22
2023-03-06T22:54:26.970Z,-0.28
2023-03-06T22:58:23.683Z,-0.32
2023-03-06T23:02:04.684Z,-0.31
2023-03-06T23:05:29.378Z,-0.25
2023-03-06T23:09:24.558Z,-0.16
2023-03-06T23:13:25.250Z,-0.17
2023-03-06T23:17:06.867Z,-0.23
2023-03-06T23:20:48.673Z,-0.20
2023-03-06T23:24:30.396Z,-0.16
2023-03-06T23:28:08.196Z,-0.23
2023-03-06T23:31:45.773Z,-0.38
2023-03-06T23:35:23.529Z,-0.54
2023-03-06T23:39:20.014Z,-0.64
2023-03-06T23:42:42.205Z,-0.70
2023-03-06T23:46:19.558Z,-0.78
2023-03-06T23:49:57.376Z,-0.80
2023-03-06T23:53:35.517Z,-0.83
2023-03-06T23:57:12.924Z,-0.88
